Terminal Aerodrome Forecast
Issued by NWS Shreveport, LA

Home | Current Version | Previous Version | Text Only | Print | Product List | Glossary On
Versions: 1 2 3 4 5 6 7 8 9 10 11 12
000
FTUS44 KSHV 151123
TAFTXK
TAF
KTXK 151123Z 1512/1612 VRB03KT P6SM BKN250
     FM151800 28006KT P6SM SCT250
     FM160000 VRB03KT P6SM SCT250
     FM160800 19004KT P6SM SCT250=

USA.gov is the U.S. government's official web portal to all federal, state and local government web resources and services.